Terminal Aerodrome Forecast
Issued by NWS

Home | Current Version | Previous Version | Text Only | Print | Product List | Glossary On
Versions: 1 2 3 4 5 6 7 8 9 10 11 12 13
000
FTUS46 KLOX 022340
TAFBUR
TAF
KBUR 022340Z 0300/0324 02015G23KT P6SM SKC
     FM030800 34010KT P6SM SKC WS010/05035KT
     FM031800 05014KT P6SM SKC
     FM032100 03009KT P6SM SKC=

USA.gov is the U.S. government's official web portal to all federal, state and local government web resources and services.